Time;durP1;ratioP1;P1;durP2;ratioP2;P2;SDS_P1;SDS_P2;PMS_P1;PMS_P2;Temp;Humidity;BMP_temperature;BMP_pressure;BME280_temperature;BME280_humidity;BME280_pressure;Samples;Min_cycle;Max_cycle;Signal;HPM_P1;HPM_P2
2023/07/13 00:01:10;;;;;;;1.30;0.85;;;27.20;79.60;;;;;;5142935;27;20694;-86
2023/07/13 00:03:40;;;;;;;1.15;0.77;;;27.20;79.60;;;;;;5144851;27;20246;-85
2023/07/13 00:06:11;;;;;;;0.90;0.90;;;27.20;80.40;;;;;;5148630;27;20190;-85
2023/07/13 00:08:39;;;;;;;0.30;0.30;;;27.10;80.30;;;;;;5141947;27;20712;-84
2023/07/13 00:11:10;;;;;;;0.60;0.30;;;27.10;80.30;;;;;;5135758;27;20704;-85
2023/07/13 00:13:39;;;;;;;0.40;0.40;;;27.10;80.40;;;;;;5144678;27;20231;-85
2023/07/13 00:16:08;;;;;;;1.23;0.77;;;27.10;80.50;;;;;;5144768;27;20196;-86
2023/07/13 00:18:38;;;;;;;1.75;1.23;;;27.00;80.10;;;;;;5140796;27;20655;-87
2023/07/13 00:21:06;;;;;;;0.40;0.40;;;27.10;80.00;;;;;;5150543;27;20195;-85
2023/07/13 00:23:37;;;;;;;0.57;0.57;;;27.00;80.00;;;;;;5160728;27;20252;-84
2023/07/13 00:26:08;;;;;;;0.90;0.43;;;27.00;79.80;;;;;;5139723;27;20211;-85
2023/07/13 00:28:37;;;;;;;0.73;0.60;;;27.00;80.00;;;;;;5150402;27;20183;-84
2023/07/13 00:31:06;;;;;;;0.45;0.45;;;27.00;80.10;;;;;;5142601;27;20572;-86
2023/07/13 00:33:36;;;;;;;1.80;1.25;;;27.00;80.50;;;;;;5140612;27;20689;-85
2023/07/13 00:36:05;;;;;;;0.85;0.85;;;26.90;80.20;;;;;;5136235;27;20245;-83
2023/07/13 00:38:35;;;;;;;0.82;0.47;;;26.90;80.20;;;;;;5143056;27;20189;-83
2023/07/13 00:41:04;;;;;;;0.45;0.45;;;26.90;80.00;;;;;;5122830;27;20193;-84
2023/07/13 00:43:33;;;;;;;0.57;0.32;;;26.90;80.10;;;;;;5144570;27;20188;-86
2023/07/13 00:46:24;;;;;;;0.40;0.40;;;26.90;80.20;;;;;;5144444;27;20192;-86
2023/07/13 00:48:55;;;;;;;0.52;0.50;;;26.80;80.20;;;;;;5142235;27;20200;-85
2023/07/13 00:51:29;;;;;;;0.57;0.57;;;26.80;80.30;;;;;;5142142;27;20184;-83
2023/07/13 00:54:04;;;;;;;0.65;0.65;;;26.80;80.30;;;;;;5139702;27;20887;-84
2023/07/13 00:56:35;;;;;;;0.55;0.47;;;26.80;80.20;;;;;;5145934;27;20838;-85
2023/07/13 00:59:05;;;;;;;0.30;0.30;;;26.70;80.40;;;;;;5127998;27;20227;-84
2023/07/13 01:01:33;;;;;;;1.27;1.17;;;26.70;80.80;;;;;;5124379;27;20620;-85
2023/07/13 01:04:02;;;;;;;0.45;0.40;;;26.70;80.80;;;;;;5138903;27;20239;-85
2023/07/13 01:06:31;;;;;;;0.32;0.32;;;26.70;80.80;;;;;;5130665;27;20649;-84
2023/07/13 01:09:01;;;;;;;0.73;0.40;;;26.70;80.80;;;;;;5137509;27;20200;-85
2023/07/13 01:11:29;;;;;;;0.40;0.40;;;26.70;80.80;;;;;;5143876;27;20641;-84
2023/07/13 01:13:58;;;;;;;1.52;0.85;;;26.60;80.70;;;;;;5130229;27;20559;-84
2023/07/13 01:16:34;;;;;;;0.40;0.40;;;26.60;80.80;;;;;;5116956;27;20204;-86
2023/07/13 01:19:04;;;;;;;1.25;0.85;;;26.60;81.10;;;;;;5133554;27;20200;-86
2023/07/13 01:21:34;;;;;;;4.63;0.50;;;26.60;81.40;;;;;;5127068;27;20553;-83
2023/07/13 01:24:02;;;;;;;0.38;0.38;;;26.50;81.40;;;;;;5115728;27;20184;-83
2023/07/13 01:26:31;;;;;;;0.20;0.20;;;26.50;81.30;;;;;;5113423;27;20280;-83
2023/07/13 01:28:59;;;;;;;2.03;0.93;;;26.50;81.60;;;;;;5125162;27;20550;-85
2023/07/13 01:31:27;;;;;;;1.02;0.70;;;26.50;82.20;;;;;;5120289;27;20593;-85
2023/07/13 01:33:57;;;;;;;1.13;0.22;;;26.50;81.80;;;;;;5117555;27;20185;-86
2023/07/13 01:36:25;;;;;;;0.43;0.43;;;26.50;81.80;;;;;;5115859;27;20243;-85
2023/07/13 01:38:55;;;;;;;0.60;0.50;;;26.40;81.80;;;;;;5116786;27;20197;-84
2023/07/13 01:41:24;;;;;;;1.23;0.55;;;26.40;81.90;;;;;;5118843;27;20193;-84
2023/07/13 01:43:52;;;;;;;3.60;0.70;;;26.40;82.30;;;;;;5124846;27;20189;-84
2023/07/13 01:46:20;;;;;;;0.40;0.40;;;26.40;82.40;;;;;;5126998;27;20642;-86
2023/07/13 01:48:52;;;;;;;0.40;0.40;;;26.40;82.50;;;;;;5123778;27;20220;-86
2023/07/13 01:51:21;;;;;;;0.47;0.47;;;26.40;82.50;;;;;;5122972;27;20606;-84
2023/07/13 01:53:49;;;;;;;2.38;0.75;;;26.40;82.50;;;;;;5103495;27;20196;-87
2023/07/13 01:56:20;;;;;;;1.75;0.50;;;26.40;82.50;;;;;;5121805;27;20189;-86
2023/07/13 01:58:49;;;;;;;0.40;0.40;;;26.30;82.40;;;;;;5131695;27;20188;-85
2023/07/13 02:01:17;;;;;;;0.70;0.70;;;26.30;82.40;;;;;;5126448;27;20213;-86
2023/07/13 02:03:46;;;;;;;0.77;0.40;;;26.30;82.50;;;;;;5121611;27;20194;-85
2023/07/13 02:06:15;;;;;;;1.02;0.55;;;26.30;82.60;;;;;;5117401;27;20201;-86
2023/07/13 02:08:43;;;;;;;0.20;0.20;;;26.30;82.70;;;;;;5107428;27;20198;-84
2023/07/13 02:11:12;;;;;;;1.30;1.13;;;26.30;83.10;;;;;;5118592;27;20295;-83
2023/07/13 02:13:42;;;;;;;2.15;0.82;;;26.20;83.10;;;;;;5118964;27;20255;-84
2023/07/13 02:16:11;;;;;;;0.47;0.43;;;26.30;83.40;;;;;;5117864;27;20204;-84
2023/07/13 02:18:40;;;;;;;0.93;0.32;;;26.20;84.80;;;;;;5124167;27;20196;-85
2023/07/13 02:21:08;;;;;;;0.98;0.65;;;26.20;83.80;;;;;;5116603;27;20247;-84
2023/07/13 02:23:36;;;;;;;2.25;1.33;;;26.20;84.10;;;;;;5118414;27;20189;-85
2023/07/13 02:26:05;;;;;;;2.15;1.02;;;26.20;85.60;;;;;;5117145;27;20700;-84
2023/07/13 02:28:33;;;;;;;1.33;1.02;;;26.20;87.10;;;;;;5124869;27;20662;-83
2023/07/13 02:31:12;;;;;;;4.00;1.23;;;26.20;87.70;;;;;;5115759;27;20197;-84
2023/07/13 02:33:40;;;;;;;0.95;0.93;;;26.10;88.20;;;;;;5121157;27;20200;-83
2023/07/13 02:36:09;;;;;;;4.88;1.38;;;26.10;88.60;;;;;;5124494;27;20187;-85
2023/07/13 02:38:38;;;;;;;1.00;0.98;;;26.10;88.70;;;;;;5116840;27;20200;-86
2023/07/13 02:41:09;;;;;;;2.22;1.42;;;26.10;88.70;;;;;;5118565;27;20212;-85
2023/07/13 02:43:38;;;;;;;0.85;0.85;;;26.00;88.50;;;;;;5126930;27;20275;-86
2023/07/13 02:46:08;;;;;;;2.38;0.70;;;26.10;88.30;;;;;;5111097;27;20197;-85
2023/07/13 02:48:39;;;;;;;1.27;0.82;;;26.10;88.50;;;;;;5128538;27;20919;-85
2023/07/13 02:51:09;;;;;;;1.92;1.35;;;26.10;88.40;;;;;;5120465;27;20212;-84
2023/07/13 02:53:39;;;;;;;2.17;0.98;;;26.10;88.00;;;;;;5115617;27;20188;-86
2023/07/13 02:56:07;;;;;;;1.27;1.10;;;26.10;87.60;;;;;;5136955;27;20680;-83
2023/07/13 02:58:38;;;;;;;1.60;0.60;;;26.10;87.50;;;;;;5116070;27;20189;-85
2023/07/13 03:01:11;;;;;;;2.22;1.42;;;26.10;87.10;;;;;;5115505;27;20784;-83
2023/07/13 03:03:41;;;;;;;2.72;1.30;;;26.10;87.80;;;;;;5112980;27;20197;-85
2023/07/13 03:06:10;;;;;;;6.82;0.50;;;26.10;88.00;;;;;;5110363;27;20280;-83
2023/07/13 03:08:39;;;;;;;1.75;1.33;;;26.10;87.60;;;;;;5115370;27;21605;-84
2023/07/13 03:11:10;;;;;;;2.63;1.42;;;26.10;87.30;;;;;;5118025;27;20189;-83
2023/07/13 03:13:40;;;;;;;1.45;1.00;;;26.10;87.50;;;;;;5122166;27;20293;-84
2023/07/13 03:16:10;;;;;;;0.73;0.73;;;26.10;88.20;;;;;;5109416;27;20583;-85
2023/07/13 03:18:39;;;;;;;0.68;0.68;;;26.10;87.20;;;;;;5111478;27;20221;-85
2023/07/13 03:21:09;;;;;;;2.25;0.68;;;26.10;87.20;;;;;;5116737;27;20216;-84
2023/07/13 03:23:37;;;;;;;1.15;0.85;;;26.10;87.00;;;;;;5111042;27;20196;-85
2023/07/13 03:26:07;;;;;;;1.20;1.02;;;26.10;86.90;;;;;;5120071;27;20657;-85
2023/07/13 03:28:37;;;;;;;0.50;0.50;;;26.10;86.90;;;;;;5121605;27;20184;-84
2023/07/13 03:31:07;;;;;;;0.45;0.40;;;26.10;86.70;;;;;;5127771;27;20192;-86
2023/07/13 03:33:36;;;;;;;0.95;0.90;;;26.10;86.60;;;;;;5132199;27;20192;-84
2023/07/13 03:36:06;;;;;;;2.28;0.65;;;26.10;86.50;;;;;;5122127;27;20640;-86
2023/07/13 03:38:35;;;;;;;0.45;0.45;;;26.20;86.30;;;;;;5121214;27;20185;-84
2023/07/13 03:41:04;;;;;;;0.65;0.65;;;26.30;86.40;;;;;;5123306;27;20216;-85
2023/07/13 03:43:32;;;;;;;1.73;1.35;;;26.30;86.40;;;;;;5128471;27;20207;-86
2023/07/13 03:46:01;;;;;;;1.27;0.77;;;26.30;86.80;;;;;;5121818;27;20807;-85
2023/07/13 03:48:29;;;;;;;0.75;0.75;;;26.20;87.00;;;;;;5123009;27;20207;-86
2023/07/13 03:50:57;;;;;;;0.85;0.85;;;26.30;87.20;;;;;;5125128;27;20203;-85
2023/07/13 03:53:26;;;;;;;0.90;0.88;;;26.30;87.10;;;;;;5122857;27;20283;-85
2023/07/13 03:55:55;;;;;;;0.57;0.50;;;26.30;86.90;;;;;;5110584;27;20193;-83
2023/07/13 03:58:33;;;;;;;1.23;0.77;;;26.30;87.30;;;;;;5123545;27;20192;-84
2023/07/13 04:01:02;;;;;;;1.40;0.85;;;26.40;87.40;;;;;;5112800;27;20200;-85
2023/07/13 04:03:32;;;;;;;1.25;0.68;;;26.40;87.20;;;;;;5126535;27;20225;-84
2023/07/13 04:06:01;;;;;;;1.02;0.82;;;26.40;87.20;;;;;;5116284;27;20189;-85
2023/07/13 04:08:31;;;;;;;0.40;0.40;;;26.40;87.10;;;;;;5124794;27;20192;-82
2023/07/13 04:11:03;;;;;;;4.18;1.17;;;26.50;87.20;;;;;;5118097;27;20586;-85
2023/07/13 04:13:31;;;;;;;2.33;1.02;;;26.50;87.10;;;;;;5111275;27;21251;-85
2023/07/13 04:16:00;;;;;;;1.02;0.80;;;26.50;87.00;;;;;;5118292;27;20200;-85
2023/07/13 04:18:28;;;;;;;0.75;0.47;;;26.60;86.90;;;;;;5126394;27;20216;-85
2023/07/13 04:20:56;;;;;;;2.38;1.05;;;26.60;87.20;;;;;;5121448;27;20243;-83
2023/07/13 04:23:25;;;;;;;0.40;0.40;;;26.60;87.10;;;;;;5117540;27;20280;-85
2023/07/13 04:25:54;;;;;;;1.92;0.85;;;26.60;86.90;;;;;;5117877;27;20737;-84
2023/07/13 04:28:26;;;;;;;1.83;0.90;;;26.70;86.70;;;;;;5129412;27;20251;-85
2023/07/13 04:30:54;;;;;;;0.65;0.65;;;26.70;87.60;;;;;;5109462;27;20657;-85
2023/07/13 04:33:23;;;;;;;2.55;0.93;;;26.80;86.80;;;;;;5110910;27;20503;-85
2023/07/13 04:35:55;;;;;;;0.60;0.60;;;26.90;86.60;;;;;;5118851;27;20223;-85
2023/07/13 04:38:27;;;;;;;2.20;1.33;;;26.90;86.40;;;;;;5118230;27;20276;-86
2023/07/13 04:40:56;;;;;;;0.60;0.60;;;27.00;86.30;;;;;;5126127;27;20906;-85
2023/07/13 04:43:27;;;;;;;0.75;0.63;;;27.00;86.30;;;;;;5121161;27;20192;-85
2023/07/13 04:45:56;;;;;;;2.55;1.25;;;27.10;86.20;;;;;;5120423;27;20190;-86
2023/07/13 04:48:25;;;;;;;0.68;0.55;;;27.10;86.00;;;;;;5125977;27;20192;-85
2023/07/13 04:50:58;;;;;;;0.75;0.75;;;27.20;86.00;;;;;;5101646;27;20241;-85
2023/07/13 04:53:27;;;;;;;0.57;0.57;;;27.20;85.80;;;;;;5124887;27;20250;-83
2023/07/13 04:55:56;;;;;;;0.50;0.50;;;27.20;85.60;;;;;;5126143;27;20315;-85
2023/07/13 04:58:27;;;;;;;0.47;0.47;;;27.30;85.50;;;;;;5122247;27;20193;-84
2023/07/13 05:01:00;;;;;;;2.05;0.75;;;27.30;85.40;;;;;;5121704;27;20557;-86
2023/07/13 05:03:29;;;;;;;1.02;0.30;;;27.40;85.30;;;;;;5119207;27;20192;-86
2023/07/13 05:05:59;;;;;;;2.63;0.50;;;27.40;85.20;;;;;;5124643;27;20204;-85
2023/07/13 05:08:34;;;;;;;0.32;0.32;;;27.40;85.20;;;;;;5118606;27;20189;-87
2023/07/13 05:11:03;;;;;;;1.83;1.35;;;27.50;85.30;;;;;;5122665;27;20988;-84
2023/07/13 05:13:32;;;;;;;0.47;0.47;;;27.60;85.20;;;;;;5123648;27;20256;-84
2023/07/13 05:16:03;;;;;;;0.80;0.50;;;27.60;85.20;;;;;;5117020;27;20195;-83
2023/07/13 05:18:32;;;;;;;0.63;0.52;;;27.60;85.90;;;;;;5122654;27;20737;-84
2023/07/13 05:21:02;;;;;;;1.80;1.33;;;27.70;85.00;;;;;;5120560;27;20185;-86
2023/07/13 05:23:32;;;;;;;0.45;0.45;;;27.70;84.90;;;;;;5128624;27;20197;-86
2023/07/13 05:26:01;;;;;;;1.23;0.70;;;27.70;84.70;;;;;;5112806;27;20189;-86
2023/07/13 05:28:31;;;;;;;0.45;0.45;;;27.80;84.80;;;;;;5119924;27;20189;-84
2023/07/13 05:31:01;;;;;;;1.05;0.60;;;27.90;84.70;;;;;;5125404;27;20197;-87
2023/07/13 05:33:29;;;;;;;1.60;1.20;;;27.90;84.60;;;;;;5125262;27;20200;-88
2023/07/13 05:36:00;;;;;;;0.40;0.40;;;27.90;84.70;;;;;;5114336;27;20208;-88
2023/07/13 05:38:34;;;;;;;1.83;0.95;;;28.00;84.70;;;;;;5119317;27;20181;-88
2023/07/13 05:41:03;;;;;;;1.60;0.52;;;28.00;84.70;;;;;;5121813;27;20188;-87
2023/07/13 05:43:33;;;;;;;0.77;0.77;;;28.00;84.60;;;;;;5145026;27;20188;-88
2023/07/13 05:46:03;;;;;;;1.10;1.00;;;28.10;84.60;;;;;;5117278;27;20189;-86
2023/07/13 05:48:31;;;;;;;1.50;0.63;;;28.20;84.50;;;;;;5120696;27;20197;-87
2023/07/13 05:51:00;;;;;;;0.65;0.50;;;28.20;84.30;;;;;;5120366;27;20250;-87
2023/07/13 05:53:28;;;;;;;1.17;1.02;;;28.30;84.30;;;;;;5120563;27;20197;-86
2023/07/13 05:55:57;;;;;;;0.50;0.50;;;28.30;84.10;;;;;;5115410;27;20219;-89
2023/07/13 05:58:29;;;;;;;0.88;0.70;;;28.40;84.00;;;;;;5114908;27;20201;-88
2023/07/13 06:01:05;;;;;;;0.47;0.47;;;28.50;83.90;;;;;;5115033;27;20207;-88
2023/07/13 06:03:34;;;;;;;3.70;1.67;;;28.50;83.60;;;;;;5113476;27;20207;-88
2023/07/13 06:06:02;;;;;;;0.50;0.50;;;28.60;83.50;;;;;;5122676;27;20196;-88
2023/07/13 06:08:31;;;;;;;6.45;1.10;;;28.70;83.30;;;;;;5121308;27;20215;-86
2023/07/13 06:11:07;;;;;;;1.40;1.15;;;28.70;83.00;;;;;;5115491;27;20203;-87
2023/07/13 06:13:36;;;;;;;1.58;0.90;;;28.80;82.80;;;;;;5120306;27;20295;-86
2023/07/13 06:16:06;;;;;;;0.80;0.70;;;28.80;82.50;;;;;;5116325;27;20649;-87
2023/07/13 06:18:36;;;;;;;0.55;0.55;;;28.90;82.50;;;;;;5111440;27;20199;-87
2023/07/13 06:21:08;;;;;;;2.25;1.10;;;29.00;82.20;;;;;;5117895;27;20238;-84
2023/07/13 06:23:37;;;;;;;2.00;0.70;;;29.00;82.00;;;;;;5115122;27;20474;-87
2023/07/13 06:26:07;;;;;;;0.90;0.88;;;29.10;81.70;;;;;;5125901;27;20615;-85
2023/07/13 06:28:36;;;;;;;1.30;0.40;;;29.10;81.30;;;;;;5130386;27;20201;-87
2023/07/13 06:31:08;;;;;;;1.27;1.17;;;29.20;81.30;;;;;;5115703;27;20504;-88
2023/07/13 06:33:38;;;;;;;1.48;0.85;;;29.20;81.00;;;;;;5115688;27;20673;-89
2023/07/13 06:36:09;;;;;;;1.77;0.73;;;29.30;80.90;;;;;;5097378;27;20714;-87
2023/07/13 06:38:38;;;;;;;1.48;0.80;;;29.40;80.90;;;;;;5116473;27;20230;-88
2023/07/13 06:41:07;;;;;;;3.92;1.10;;;29.40;80.80;;;;;;5127588;27;20196;-87
2023/07/13 06:43:36;;;;;;;5.43;1.52;;;29.50;80.80;;;;;;5111756;27;20219;-88
2023/07/13 06:46:04;;;;;;;1.15;1.08;;;29.50;80.50;;;;;;5130128;27;20220;-88
2023/07/13 06:48:35;;;;;;;0.75;0.75;;;29.60;80.50;;;;;;5124050;27;20531;-86
2023/07/13 06:51:04;;;;;;;1.25;0.73;;;29.60;80.00;;;;;;5112028;27;20197;-85
2023/07/13 06:53:33;;;;;;;1.33;0.60;;;29.70;79.70;;;;;;5114356;27;20711;-87
2023/07/13 06:56:01;;;;;;;1.02;0.88;;;29.80;79.60;;;;;;5112310;27;20195;-88
2023/07/13 06:58:30;;;;;;;0.50;0.50;;;29.90;80.30;;;;;;5119625;27;20199;-88
2023/07/13 07:00:58;;;;;;;0.63;0.60;;;29.90;79.30;;;;;;5125428;27;20201;-86
2023/07/13 07:03:27;;;;;;;2.53;0.65;;;30.00;79.30;;;;;;5122405;27;20697;-86
2023/07/13 07:06:01;;;;;;;0.60;0.60;;;30.00;79.00;;;;;;5112180;27;20231;-86
2023/07/13 07:08:30;;;;;;;0.60;0.60;;;30.10;78.80;;;;;;5126071;27;20192;-87
2023/07/13 07:10:58;;;;;;;1.02;0.80;;;30.20;78.80;;;;;;5116152;27;20200;-88
2023/07/13 07:13:28;;;;;;;1.45;1.23;;;30.20;78.50;;;;;;5121759;27;20754;-87
2023/07/13 07:15:56;;;;;;;0.85;0.85;;;30.30;78.30;;;;;;5117570;27;20189;-86
2023/07/13 07:18:25;;;;;;;1.85;0.90;;;30.40;78.40;;;;;;5123798;27;20207;-86
2023/07/13 07:20:53;;;;;;;0.70;0.70;;;30.40;78.00;;;;;;5124464;27;20201;-86
2023/07/13 07:23:23;;;;;;;0.80;0.77;;;30.50;78.00;;;;;;5118804;27;20231;-87
2023/07/13 07:25:51;;;;;;;2.17;1.50;;;30.50;77.90;;;;;;5105116;27;20197;-88
2023/07/13 07:28:20;;;;;;;1.17;1.05;;;30.60;77.80;;;;;;5115980;27;20204;-89
2023/07/13 07:30:54;;;;;;;0.40;0.40;;;30.60;77.50;;;;;;5118536;27;20193;-88
2023/07/13 07:33:42;;;;;;;0.73;0.73;;;30.70;77.40;;;;;;5122044;27;20285;-89
2023/07/13 07:36:12;;;;;;;1.05;0.77;;;30.70;77.40;;;;;;5118063;27;20294;-88
2023/07/13 07:38:45;;;;;;;1.35;1.25;;;30.80;77.00;;;;;;5123726;27;20254;-87
2023/07/13 07:41:14;;;;;;;1.17;0.98;;;30.80;77.10;;;;;;5121779;27;21171;-89
2023/07/13 07:43:48;;;;;;;0.93;0.57;;;31.00;77.20;;;;;;5128128;27;20584;-88
2023/07/13 07:46:17;;;;;;;0.77;0.75;;;31.00;76.90;;;;;;5099994;27;20196;-88
2023/07/13 07:48:46;;;;;;;2.10;1.52;;;31.00;76.90;;;;;;5104640;27;20204;-88
2023/07/13 07:51:16;;;;;;;2.53;0.77;;;31.10;77.00;;;;;;5110870;27;20664;-89
2023/07/13 07:53:46;;;;;;;2.00;1.15;;;31.10;76.90;;;;;;5116893;27;20185;-86
2023/07/13 07:56:16;;;;;;;2.13;1.27;;;31.20;76.80;;;;;;5119154;27;20209;-86
2023/07/13 07:58:47;;;;;;;0.45;0.45;;;31.20;76.80;;;;;;5114748;27;20192;-85
2023/07/13 08:01:18;;;;;;;2.08;1.65;;;31.30;76.90;;;;;;5115805;27;20189;-86
2023/07/13 08:03:50;;;;;;;1.10;0.55;;;31.40;76.80;;;;;;5123640;27;20219;-86
2023/07/13 08:06:21;;;;;;;1.20;0.85;;;31.40;76.60;;;;;;5128484;27;20218;-88
2023/07/13 08:08:54;;;;;;;1.92;1.17;;;31.40;76.60;;;;;;5124523;27;20561;-85
2023/07/13 08:11:23;;;;;;;1.20;1.10;;;31.50;76.30;;;;;;5113120;27;20217;-88
2023/07/13 08:13:55;;;;;;;1.73;1.58;;;31.50;76.10;;;;;;5123006;27;20211;-86
2023/07/13 08:16:24;;;;;;;0.52;0.52;;;31.60;76.10;;;;;;5111432;27;20193;-86
2023/07/13 08:18:52;;;;;;;1.92;1.23;;;31.60;76.20;;;;;;5125102;27;20211;-87
2023/07/13 08:21:21;;;;;;;1.00;0.80;;;31.70;75.70;;;;;;5121147;27;20188;-85
2023/07/13 08:23:50;;;;;;;1.80;1.30;;;31.70;75.80;;;;;;5130424;27;20226;-85
2023/07/13 08:26:21;;;;;;;0.50;0.50;;;31.80;75.50;;;;;;5111846;27;20193;-86
2023/07/13 08:28:50;;;;;;;0.60;0.60;;;31.80;75.30;;;;;;5129926;27;20556;-86
2023/07/13 08:31:18;;;;;;;0.77;0.77;;;31.80;75.10;;;;;;5117076;27;20196;-84
2023/07/13 08:33:47;;;;;;;0.95;0.95;;;31.90;75.10;;;;;;5114402;27;20204;-85
2023/07/13 08:36:16;;;;;;;1.10;0.80;;;31.90;75.10;;;;;;5115088;27;23126;-85
2023/07/13 08:38:44;;;;;;;1.88;1.52;;;32.00;75.30;;;;;;5105413;27;20207;-84
2023/07/13 08:41:15;;;;;;;1.02;0.70;;;32.10;75.20;;;;;;5112822;27;20196;-84
2023/07/13 08:43:52;;;;;;;2.22;1.52;;;32.10;75.10;;;;;;5133352;27;20610;-84
2023/07/13 08:46:26;;;;;;;1.25;0.70;;;32.20;75.10;;;;;;5121718;27;20193;-85
2023/07/13 08:48:59;;;;;;;0.70;0.70;;;32.20;75.40;;;;;;5125443;27;20752;-86
2023/07/13 08:51:42;;;;;;;1.70;1.33;;;32.30;75.00;;;;;;5121122;27;20197;-89
2023/07/13 08:54:20;;;;;;;1.60;1.20;;;32.40;74.10;;;;;;5120458;27;20192;-85
2023/07/13 08:56:52;;;;;;;0.85;0.80;;;32.30;72.40;;;;;;5114574;27;20200;-85
2023/07/13 08:59:25;;;;;;;3.05;1.70;;;32.30;72.90;;;;;;5117402;27;20197;-85
2023/07/13 09:02:22;;;;;;;1.17;0.80;;;32.40;73.30;;;;;;5116677;27;20180;-84
2023/07/13 09:04:55;;;;;;;0.90;0.85;;;32.50;73.40;;;;;;5116464;27;20212;-85
2023/07/13 09:07:32;;;;;;;1.58;1.38;;;32.60;73.40;;;;;;5125373;27;20694;-84
2023/07/13 09:10:11;;;;;;;1.42;0.88;;;32.60;73.30;;;;;;5119862;27;20189;-82
2023/07/13 09:12:52;;;;;;;2.35;2.00;;;32.70;72.90;;;;;;5124768;27;20616;-86
2023/07/13 09:15:31;;;;;;;6.22;1.13;;;32.70;72.90;;;;;;5107528;27;20182;-83
2023/07/13 09:18:05;;;;;;;1.30;0.93;;;32.80;73.10;;;;;;5112079;27;20724;-86
2023/07/13 09:20:36;;;;;;;0.85;0.82;;;32.80;73.20;;;;;;5121628;27;20195;-85
2023/07/13 09:23:19;;;;;;;2.15;1.58;;;32.90;72.70;;;;;;5123021;27;20559;-84
2023/07/13 09:25:50;;;;;;;1.40;1.00;;;32.90;71.90;;;;;;5126678;27;20637;-84
2023/07/13 09:28:23;;;;;;;1.40;0.90;;;32.90;70.20;;;;;;5116418;27;20253;-85
2023/07/13 09:31:02;;;;;;;0.98;0.98;;;33.00;70.00;;;;;;5120642;27;20188;-83
2023/07/13 09:33:31;;;;;;;3.20;1.60;;;33.20;70.00;;;;;;5123276;27;20181;-85
2023/07/13 09:36:00;;;;;;;0.60;0.60;;;33.10;69.30;;;;;;5124949;27;20189;-84
2023/07/13 09:38:31;;;;;;;1.58;1.17;;;33.20;69.70;;;;;;5114577;27;20201;-84
2023/07/13 09:41:12;;;;;;;0.50;0.50;;;33.20;69.10;;;;;;5123470;27;20181;-84
2023/07/13 09:44:11;;;;;;;1.00;0.90;;;33.40;69.10;;;;;;5104600;27;20218;-85
2023/07/13 09:46:45;;;;;;;1.00;1.00;;;33.40;69.10;;;;;;5114957;27;20209;-85
2023/07/13 09:49:14;;;;;;;2.88;1.38;;;33.50;69.50;;;;;;5121320;27;20236;-85
2023/07/13 09:51:44;;;;;;;0.82;0.77;;;33.50;69.20;;;;;;5111607;27;20197;-83
2023/07/13 09:54:21;;;;;;;1.25;1.15;;;33.60;68.60;;;;;;5114022;27;20200;-85
2023/07/13 09:56:54;;;;;;;0.77;0.77;;;33.60;68.40;;;;;;5119632;27;20640;-83
2023/07/13 09:59:24;;;;;;;1.13;0.70;;;33.70;68.50;;;;;;5123400;27;20195;-85
2023/07/13 10:01:54;;;;;;;0.57;0.57;;;33.70;68.00;;;;;;5113307;27;20633;-84
2023/07/13 10:04:28;;;;;;;1.52;1.20;;;33.80;67.90;;;;;;5117216;27;20246;-85
2023/07/13 10:07:07;;;;;;;4.90;2.08;;;33.90;67.80;;;;;;5119369;27;20325;-83
2023/07/13 10:09:55;;;;;;;1.48;1.38;;;33.90;66.10;;;;;;5113049;27;20197;-84
2023/07/13 10:12:25;;;;;;;1.15;0.98;;;34.00;65.90;;;;;;5111449;27;20250;-83
2023/07/13 10:14:56;;;;;;;1.70;1.25;;;34.10;65.50;;;;;;5123486;27;20604;-86
2023/07/13 10:17:37;;;;;;;2.08;1.40;;;34.20;65.60;;;;;;5124286;27;20200;-84
2023/07/13 10:20:12;;;;;;;2.13;1.23;;;34.30;65.80;;;;;;5119863;27;20201;-85
2023/07/13 10:22:47;;;;;;;1.25;0.90;;;34.30;65.00;;;;;;5123593;27;20208;-84
2023/07/13 10:25:18;;;;;;;5.55;1.95;;;34.40;65.30;;;;;;5117277;27;20227;-85
2023/07/13 10:27:47;;;;;;;2.60;1.20;;;34.40;65.50;;;;;;5116810;27;20196;-86
2023/07/13 10:30:22;;;;;;;4.22;1.88;;;34.40;64.80;;;;;;5118706;27;20197;-85
2023/07/13 10:32:53;;;;;;;0.90;0.90;;;34.50;65.00;;;;;;5123781;27;20187;-88
2023/07/13 10:35:23;;;;;;;1.80;1.70;;;34.60;65.40;;;;;;5109763;27;20200;-86
2023/07/13 10:37:57;;;;;;;2.83;1.63;;;34.60;65.10;;;;;;5116562;27;20196;-88
2023/07/13 10:40:31;;;;;;;0.80;0.80;;;34.60;65.10;;;;;;5126239;27;20184;-83
2023/07/13 10:43:03;;;;;;;1.50;1.30;;;34.70;64.00;;;;;;5122085;27;20188;-83
2023/07/13 10:45:35;;;;;;;1.40;0.98;;;34.70;62.40;;;;;;5125631;27;20217;-83
2023/07/13 10:48:10;;;;;;;1.80;1.67;;;34.80;62.60;;;;;;5117196;27;20185;-84
2023/07/13 10:50:45;;;;;;;2.40;1.20;;;34.80;62.30;;;;;;5115213;27;20200;-82
2023/07/13 10:53:22;;;;;;;1.23;1.13;;;34.80;59.90;;;;;;5123420;27;20192;-84
2023/07/13 10:56:01;;;;;;;9.10;1.35;;;34.90;60.00;;;;;;5115378;27;20224;-84
2023/07/13 10:58:34;;;;;;;1.95;0.85;;;34.90;59.70;;;;;;5114609;27;20197;-87
2023/07/13 11:01:10;;;;;;;1.33;1.02;;;35.00;59.40;;;;;;5108041;27;20207;-86
2023/07/13 11:03:51;;;;;;;1.13;0.90;;;35.10;59.30;;;;;;5120611;27;20314;-83
2023/07/13 11:06:36;;;;;;;1.90;1.05;;;35.20;59.10;;;;;;5113325;27;20227;-84
2023/07/13 11:09:20;;;;;;;1.70;1.15;;;35.20;59.00;;;;;;5116929;27;20219;-84
2023/07/13 11:11:49;;;;;;;2.03;1.83;;;35.30;59.30;;;;;;5119564;27;20192;-87
2023/07/13 11:14:31;;;;;;;0.82;0.77;;;35.40;59.70;;;;;;5104875;27;20628;-86
2023/07/13 11:17:20;;;;;;;1.35;1.05;;;35.40;59.70;;;;;;5125986;27;20213;-85
2023/07/13 11:19:53;;;;;;;2.50;1.45;;;35.50;60.20;;;;;;5119618;27;20201;-85
2023/07/13 11:22:27;;;;;;;1.00;0.82;;;35.50;60.00;;;;;;5113602;27;20212;-85
2023/07/13 11:25:05;;;;;;;1.50;1.35;;;35.60;60.20;;;;;;5111802;27;20212;-84
2023/07/13 11:27:44;;;;;;;0.95;0.82;;;35.60;60.10;;;;;;5114147;27;20972;-84
2023/07/13 11:30:35;;;;;;;4.25;0.95;;;35.70;59.80;;;;;;5125392;27;20641;-84
2023/07/13 11:33:12;;;;;;;1.40;1.30;;;35.70;59.00;;;;;;5113259;27;20770;-84
2023/07/13 11:35:59;;;;;;;1.55;1.35;;;35.70;57.80;;;;;;5113807;27;20224;-85
2023/07/13 11:38:36;;;;;;;3.05;2.00;;;35.80;58.30;;;;;;5120198;27;20701;-84
2023/07/13 11:41:14;;;;;;;1.60;1.08;;;35.80;57.90;;;;;;5115272;27;20197;-91
2023/07/13 11:43:45;;;;;;;0.73;0.52;;;35.90;57.80;;;;;;5110037;27;20717;-86
2023/07/13 11:46:15;;;;;;;2.20;1.38;;;36.00;57.90;;;;;;5111822;27;20216;-87
2023/07/13 11:48:47;;;;;;;1.38;1.17;;;36.00;57.80;;;;;;5126148;27;20472;-87
2023/07/13 11:51:22;;;;;;;1.48;0.75;;;36.20;57.70;;;;;;5115987;27;20177;-86
2023/07/13 11:53:53;;;;;;;0.85;0.85;;;36.20;58.00;;;;;;5115523;27;20227;-86
2023/07/13 11:56:27;;;;;;;0.80;0.80;;;36.30;57.60;;;;;;5110154;27;20749;-89
2023/07/13 11:58:58;;;;;;;1.83;1.48;;;36.40;57.50;;;;;;5124716;27;20190;-87
2023/07/13 12:01:32;;;;;;;1.05;0.85;;;36.40;57.20;;;;;;5111536;27;20292;-86
2023/07/13 12:04:03;;;;;;;1.25;1.10;;;36.40;56.70;;;;;;5111727;27;20189;-84
2023/07/13 12:06:39;;;;;;;1.95;1.08;;;36.40;56.00;;;;;;5104751;27;20220;-84
2023/07/13 12:09:15;;;;;;;1.40;0.80;;;36.50;55.90;;;;;;5114376;27;20187;-85
2023/07/13 12:11:47;;;;;;;2.15;1.95;;;36.50;55.80;;;;;;5112204;27;20191;-87
2023/07/13 12:14:23;;;;;;;1.30;1.20;;;36.60;56.10;;;;;;5122404;27;20219;-86
2023/07/13 12:16:52;;;;;;;0.68;0.65;;;36.60;56.00;;;;;;5112059;27;20231;-86
2023/07/13 12:19:23;;;;;;;1.25;1.00;;;36.70;56.10;;;;;;5117768;27;20197;-88
2023/07/13 12:21:57;;;;;;;1.58;0.63;;;36.70;54.80;;;;;;5116039;27;20270;-86
2023/07/13 12:24:27;;;;;;;1.60;1.05;;;36.70;55.20;;;;;;5109190;27;20195;-87
2023/07/13 12:27:01;;;;;;;2.17;1.65;;;36.70;55.00;;;;;;5114869;27;20240;-87
2023/07/13 12:29:33;;;;;;;2.30;1.40;;;36.60;54.80;;;;;;5114032;27;20192;-86
2023/07/13 12:32:01;;;;;;;1.55;1.20;;;36.70;55.10;;;;;;5114279;27;20196;-87
2023/07/13 12:34:30;;;;;;;0.75;0.60;;;36.70;55.10;;;;;;5117613;27;20581;-86
2023/07/13 12:37:02;;;;;;;1.70;1.45;;;36.90;55.00;;;;;;5117424;27;20190;-84
2023/07/13 12:39:36;;;;;;;1.13;1.08;;;36.90;53.10;;;;;;5114523;27;20195;-87
2023/07/13 12:42:34;;;;;;;2.50;1.08;;;37.00;52.90;;;;;;5127183;27;20196;-89
2023/07/13 12:45:18;;;;;;;2.03;1.30;;;37.20;53.00;;;;;;5098028;27;21265;-88
2023/07/13 12:47:54;;;;;;;0.88;0.75;;;37.20;53.60;;;;;;5116243;27;20545;-86
2023/07/13 12:50:29;;;;;;;2.80;1.92;;;37.20;53.40;;;;;;5117574;27;20200;-84
2023/07/13 12:53:09;;;;;;;3.17;1.60;;;37.20;52.90;;;;;;5111596;27;20283;-88
2023/07/13 12:55:43;;;;;;;0.70;0.70;;;37.30;53.20;;;;;;5112133;27;20203;-88
2023/07/13 12:58:22;;;;;;;3.97;1.77;;;37.40;53.60;;;;;;5115060;27;20196;-88
2023/07/13 13:00:53;;;;;;;0.70;0.70;;;37.50;53.40;;;;;;5118857;27;20605;-87
2023/07/13 13:03:27;;;;;;;1.50;1.40;;;37.50;53.30;;;;;;5114142;27;20196;-86
2023/07/13 13:06:03;;;;;;;0.98;0.93;;;37.50;53.00;;;;;;5123271;27;20826;-87
2023/07/13 13:08:34;;;;;;;0.93;0.82;;;37.50;52.50;;;;;;5128237;27;20261;-89
2023/07/13 13:11:02;;;;;;;1.20;1.05;;;37.60;52.60;;;;;;5122913;27;20779;-89